Terminal Aerodrome Forecast
Issued by NWS

Home | Current Version | Previous Version | Text Only | Print | Product List | Glossary On
Versions: 1 2 3 4 5 6 7 8 9 10 11 12
000
FTUS45 KABQ 260500
TAFFMN
TAF
KFMN 260536Z 2606/2706 25006KT P6SM OVC050
      TEMPO 2608/2612 4SM -SN OVC025
     FM261200 27006KT 3SM -SN OVC015
     FM261600 27014KT P6SM VCSH OVC040
     FM262300 27009KT P6SM BKN090=

USA.gov is the U.S. government's official web portal to all federal, state and local government web resources and services.